sensor_id;sensor_type;location;lat;lon;timestamp;pressure;altitude;pressure_sealevel;temperature;humidity
71485;BME280;59300;52.074;4.758;2022-09-09T00:04:39;100755.44;;;14.01;100.00
71485;BME280;59300;52.074;4.758;2022-09-09T00:07:47;100760.03;;;13.97;100.00
71485;BME280;59300;52.074;4.758;2022-09-09T00:10:56;100758.16;;;14.00;100.00
71485;BME280;59300;52.074;4.758;2022-09-09T00:14:03;100754.91;;;13.93;100.00
71485;BME280;59300;52.074;4.758;2022-09-09T00:17:17;100761.16;;;13.92;100.00
71485;BME280;59300;52.074;4.758;2022-09-09T00:20:29;100752.25;;;13.93;100.00
71485;BME280;59300;52.074;4.758;2022-09-09T00:23:37;100755.25;;;13.85;100.00
71485;BME280;59300;52.074;4.758;2022-09-09T00:26:49;100749.00;;;13.86;100.00
71485;BME280;59300;52.074;4.758;2022-09-09T00:33:18;100745.63;;;13.82;100.00
71485;BME280;59300;52.074;4.758;2022-09-09T00:36:23;100744.78;;;13.82;100.00
71485;BME280;59300;52.074;4.758;2022-09-09T00:39:36;100736.25;;;13.74;100.00
71485;BME280;59300;52.074;4.758;2022-09-09T00:42:43;100741.78;;;13.69;100.00
71485;BME280;59300;52.074;4.758;2022-09-09T00:49:33;100733.91;;;13.67;100.00
71485;BME280;59300;52.074;4.758;2022-09-09T00:56:21;100722.00;;;13.56;100.00
71485;BME280;59300;52.074;4.758;2022-09-09T01:06:20;100732.59;;;13.56;100.00
71485;BME280;59300;52.074;4.758;2022-09-09T01:09:38;100729.31;;;13.50;100.00
71485;BME280;59300;52.074;4.758;2022-09-09T01:12:46;100735.78;;;13.43;100.00
71485;BME280;59300;52.074;4.758;2022-09-09T01:15:53;100737.31;;;13.49;100.00
71485;BME280;59300;52.074;4.758;2022-09-09T01:19:07;100739.47;;;13.39;100.00
71485;BME280;59300;52.074;4.758;2022-09-09T01:26:28;100728.91;;;13.37;100.00
71485;BME280;59300;52.074;4.758;2022-09-09T01:29:36;100723.56;;;13.39;100.00
71485;BME280;59300;52.074;4.758;2022-09-09T01:32:41;100715.19;;;13.28;100.00
71485;BME280;59300;52.074;4.758;2022-09-09T01:36:03;100718.78;;;13.27;100.00
71485;BME280;59300;52.074;4.758;2022-09-09T01:39:13;100713.72;;;13.20;100.00
71485;BME280;59300;52.074;4.758;2022-09-09T01:42:16;100716.47;;;13.17;100.00
71485;BME280;59300;52.074;4.758;2022-09-09T01:45:21;100706.94;;;13.13;100.00
71485;BME280;59300;52.074;4.758;2022-09-09T01:48:24;100706.56;;;13.23;100.00
71485;BME280;59300;52.074;4.758;2022-09-09T01:51:37;100708.50;;;13.19;100.00
71485;BME280;59300;52.074;4.758;2022-09-09T01:54:42;100700.34;;;13.24;100.00
71485;BME280;59300;52.074;4.758;2022-09-09T01:58:09;100697.63;;;13.25;100.00
71485;BME280;59300;52.074;4.758;2022-09-09T02:08:26;100713.31;;;13.30;100.00
71485;BME280;59300;52.074;4.758;2022-09-09T02:11:37;100702.00;;;13.26;100.00
71485;BME280;59300;52.074;4.758;2022-09-09T02:14:52;100705.53;;;13.27;100.00
71485;BME280;59300;52.074;4.758;2022-09-09T02:17:58;100699.31;;;13.28;100.00
71485;BME280;59300;52.074;4.758;2022-09-09T02:21:03;100699.09;;;13.32;100.00
71485;BME280;59300;52.074;4.758;2022-09-09T02:24:07;100688.38;;;13.35;100.00
71485;BME280;59300;52.074;4.758;2022-09-09T02:27:13;100691.06;;;13.34;100.00
71485;BME280;59300;52.074;4.758;2022-09-09T02:30:16;100693.06;;;13.29;100.00
71485;BME280;59300;52.074;4.758;2022-09-09T02:33:28;100682.72;;;13.23;100.00
71485;BME280;59300;52.074;4.758;2022-09-09T02:36:33;100683.84;;;13.17;100.00
71485;BME280;59300;52.074;4.758;2022-09-09T02:39:36;100672.75;;;13.07;100.00
71485;BME280;59300;52.074;4.758;2022-09-09T02:42:44;100677.69;;;12.94;100.00
71485;BME280;59300;52.074;4.758;2022-09-09T02:46:18;100665.38;;;12.93;100.00
71485;BME280;59300;52.074;4.758;2022-09-09T02:50:05;100675.34;;;12.86;100.00
71485;BME280;59300;52.074;4.758;2022-09-09T02:53:19;100670.06;;;12.86;100.00
71485;BME280;59300;52.074;4.758;2022-09-09T02:56:25;100665.91;;;12.79;100.00
71485;BME280;59300;52.074;4.758;2022-09-09T02:59:33;100661.63;;;12.77;100.00
71485;BME280;59300;52.074;4.758;2022-09-09T03:02:35;100667.22;;;12.69;100.00
71485;BME280;59300;52.074;4.758;2022-09-09T03:05:40;100661.38;;;12.60;100.00
71485;BME280;59300;52.074;4.758;2022-09-09T03:08:44;100669.44;;;12.57;100.00
71485;BME280;59300;52.074;4.758;2022-09-09T03:11:52;100665.84;;;12.58;100.00
71485;BME280;59300;52.074;4.758;2022-09-09T03:14:55;100661.75;;;12.51;100.00
71485;BME280;59300;52.074;4.758;2022-09-09T03:17:58;100666.34;;;12.46;100.00
71485;BME280;59300;52.074;4.758;2022-09-09T03:21:01;100665.59;;;12.42;100.00
71485;BME280;59300;52.074;4.758;2022-09-09T03:24:04;100664.97;;;12.36;100.00
71485;BME280;59300;52.074;4.758;2022-09-09T03:27:06;100667.50;;;12.39;100.00
71485;BME280;59300;52.074;4.758;2022-09-09T03:30:11;100666.91;;;12.31;100.00
71485;BME280;59300;52.074;4.758;2022-09-09T03:33:13;100665.25;;;12.28;100.00
71485;BME280;59300;52.074;4.758;2022-09-09T03:36:15;100666.44;;;12.21;100.00
71485;BME280;59300;52.074;4.758;2022-09-09T03:39:17;100662.16;;;12.17;100.00
71485;BME280;59300;52.074;4.758;2022-09-09T03:42:20;100660.53;;;12.12;100.00
71485;BME280;59300;52.074;4.758;2022-09-09T03:45:25;100663.09;;;12.16;100.00
71485;BME280;59300;52.074;4.758;2022-09-09T03:48:28;100657.78;;;12.16;100.00
71485;BME280;59300;52.074;4.758;2022-09-09T03:51:31;100662.22;;;12.15;100.00
71485;BME280;59300;52.074;4.758;2022-09-09T03:54:33;100666.88;;;12.08;100.00
71485;BME280;59300;52.074;4.758;2022-09-09T03:57:35;100654.88;;;12.00;100.00
71485;BME280;59300;52.074;4.758;2022-09-09T04:00:40;100657.50;;;12.00;100.00
71485;BME280;59300;52.074;4.758;2022-09-09T04:03:42;100659.09;;;12.04;100.00
71485;BME280;59300;52.074;4.758;2022-09-09T04:06:44;100653.59;;;12.10;100.00
71485;BME280;59300;52.074;4.758;2022-09-09T04:09:47;100650.94;;;12.10;100.00
71485;BME280;59300;52.074;4.758;2022-09-09T04:12:49;100644.03;;;12.06;100.00
71485;BME280;59300;52.074;4.758;2022-09-09T04:15:53;100638.06;;;12.01;100.00
71485;BME280;59300;52.074;4.758;2022-09-09T04:18:55;100632.78;;;12.01;100.00
71485;BME280;59300;52.074;4.758;2022-09-09T04:21:57;100640.72;;;12.01;100.00
71485;BME280;59300;52.074;4.758;2022-09-09T04:24:59;100630.06;;;12.02;100.00
71485;BME280;59300;52.074;4.758;2022-09-09T04:28:03;100636.09;;;12.06;100.00
71485;BME280;59300;52.074;4.758;2022-09-09T04:31:07;100632.53;;;12.07;100.00
71485;BME280;59300;52.074;4.758;2022-09-09T04:34:10;100639.00;;;12.00;100.00
71485;BME280;59300;52.074;4.758;2022-09-09T04:37:13;100639.81;;;12.02;100.00
71485;BME280;59300;52.074;4.758;2022-09-09T04:40:15;100639.81;;;12.02;100.00
71485;BME280;59300;52.074;4.758;2022-09-09T04:43:19;100631.19;;;11.95;100.00
71485;BME280;59300;52.074;4.758;2022-09-09T04:46:22;100634.03;;;11.90;100.00
71485;BME280;59300;52.074;4.758;2022-09-09T04:49:25;100627.75;;;11.93;100.00
71485;BME280;59300;52.074;4.758;2022-09-09T04:52:27;100627.69;;;11.94;100.00
71485;BME280;59300;52.074;4.758;2022-09-09T04:55:29;100636.66;;;11.90;100.00
71485;BME280;59300;52.074;4.758;2022-09-09T04:58:31;100628.78;;;11.89;100.00
71485;BME280;59300;52.074;4.758;2022-09-09T05:01:33;100622.56;;;11.90;100.00
71485;BME280;59300;52.074;4.758;2022-09-09T05:04:38;100626.94;;;11.91;100.00
71485;BME280;59300;52.074;4.758;2022-09-09T05:07:40;100620.56;;;11.96;100.00
71485;BME280;59300;52.074;4.758;2022-09-09T05:10:43;100620.72;;;11.92;100.00
71485;BME280;59300;52.074;4.758;2022-09-09T05:13:46;100617.91;;;11.96;100.00
71485;BME280;59300;52.074;4.758;2022-09-09T05:16:49;100620.47;;;12.00;100.00
71485;BME280;59300;52.074;4.758;2022-09-09T05:19:51;100614.94;;;12.06;100.00
71485;BME280;59300;52.074;4.758;2022-09-09T05:22:55;100615.72;;;12.09;100.00
71485;BME280;59300;52.074;4.758;2022-09-09T05:26:00;100619.94;;;12.13;100.00
71485;BME280;59300;52.074;4.758;2022-09-09T05:29:03;100618.03;;;12.17;100.00
71485;BME280;59300;52.074;4.758;2022-09-09T05:32:05;100613.56;;;12.19;100.00
71485;BME280;59300;52.074;4.758;2022-09-09T05:35:10;100614.13;;;12.27;100.00
71485;BME280;59300;52.074;4.758;2022-09-09T05:38:13;100613.25;;;12.27;100.00
71485;BME280;59300;52.074;4.758;2022-09-09T05:41:16;100616.47;;;12.35;100.00
71485;BME280;59300;52.074;4.758;2022-09-09T05:44:19;100603.06;;;12.40;100.00
71485;BME280;59300;52.074;4.758;2022-09-09T05:47:21;100610.69;;;12.48;100.00
71485;BME280;59300;52.074;4.758;2022-09-09T05:50:23;100613.03;;;12.55;100.00
71485;BME280;59300;52.074;4.758;2022-09-09T05:53:32;100607.25;;;12.68;100.00
71485;BME280;59300;52.074;4.758;2022-09-09T05:56:34;100608.09;;;12.90;100.00
71485;BME280;59300;52.074;4.758;2022-09-09T05:59:37;100615.13;;;13.12;100.00
71485;BME280;59300;52.074;4.758;2022-09-09T06:02:39;100616.81;;;13.35;100.00
71485;BME280;59300;52.074;4.758;2022-09-09T06:05:41;100617.28;;;13.66;100.00
71485;BME280;59300;52.074;4.758;2022-09-09T06:08:44;100617.38;;;13.83;100.00
71485;BME280;59300;52.074;4.758;2022-09-09T06:11:49;100624.34;;;14.05;100.00
71485;BME280;59300;52.074;4.758;2022-09-09T06:14:51;100617.69;;;14.16;100.00
71485;BME280;59300;52.074;4.758;2022-09-09T06:17:54;100618.19;;;14.24;100.00
71485;BME280;59300;52.074;4.758;2022-09-09T06:21:09;100609.00;;;14.31;100.00
71485;BME280;59300;52.074;4.758;2022-09-09T06:24:13;100619.34;;;14.37;100.00
71485;BME280;59300;52.074;4.758;2022-09-09T06:27:15;100615.63;;;14.59;100.00
71485;BME280;59300;52.074;4.758;2022-09-09T06:30:17;100610.16;;;14.81;100.00
71485;BME280;59300;52.074;4.758;2022-09-09T06:33:20;100619.16;;;14.79;100.00
71485;BME280;59300;52.074;4.758;2022-09-09T06:36:24;100625.84;;;14.68;100.00
71485;BME280;59300;52.074;4.758;2022-09-09T06:39:26;100620.91;;;14.61;100.00
71485;BME280;59300;52.074;4.758;2022-09-09T06:42:30;100621.31;;;14.70;100.00
71485;BME280;59300;52.074;4.758;2022-09-09T06:46:02;100618.66;;;14.70;100.00
71485;BME280;59300;52.074;4.758;2022-09-09T06:49:08;100614.59;;;14.81;100.00
71485;BME280;59300;52.074;4.758;2022-09-09T06:52:10;100623.31;;;14.84;100.00
71485;BME280;59300;52.074;4.758;2022-09-09T06:55:13;100627.50;;;14.88;100.00
71485;BME280;59300;52.074;4.758;2022-09-09T06:58:15;100625.59;;;14.92;100.00
71485;BME280;59300;52.074;4.758;2022-09-09T07:01:23;100613.06;;;14.94;100.00
71485;BME280;59300;52.074;4.758;2022-09-09T07:04:26;100615.88;;;15.09;100.00
71485;BME280;59300;52.074;4.758;2022-09-09T07:07:31;100621.59;;;15.01;100.00
71485;BME280;59300;52.074;4.758;2022-09-09T07:10:33;100614.50;;;15.01;100.00
71485;BME280;59300;52.074;4.758;2022-09-09T07:13:36;100617.75;;;15.07;100.00
71485;BME280;59300;52.074;4.758;2022-09-09T07:16:43;100618.41;;;15.12;100.00
71485;BME280;59300;52.074;4.758;2022-09-09T07:19:46;100610.72;;;15.23;100.00
71485;BME280;59300;52.074;4.758;2022-09-09T07:22:49;100630.13;;;15.25;100.00
71485;BME280;59300;52.074;4.758;2022-09-09T07:25:52;100619.41;;;15.27;99.83
71485;BME280;59300;52.074;4.758;2022-09-09T07:28:54;100624.81;;;15.43;99.20
71485;BME280;59300;52.074;4.758;2022-09-09T07:31:57;100624.94;;;15.57;98.12
71485;BME280;59300;52.074;4.758;2022-09-09T07:35:05;100628.06;;;15.65;97.17
71485;BME280;59300;52.074;4.758;2022-09-09T07:38:07;100626.00;;;15.71;97.24
71485;BME280;59300;52.074;4.758;2022-09-09T07:41:13;100629.88;;;15.99;95.86
71485;BME280;59300;52.074;4.758;2022-09-09T07:44:22;100623.38;;;16.52;92.76
71485;BME280;59300;52.074;4.758;2022-09-09T07:47:35;100627.59;;;16.56;91.84
71485;BME280;59300;52.074;4.758;2022-09-09T07:50:38;100627.94;;;16.50;91.99
71485;BME280;59300;52.074;4.758;2022-09-09T07:53:40;100619.50;;;16.26;92.42
71485;BME280;59300;52.074;4.758;2022-09-09T07:56:42;100631.56;;;16.17;92.39
71485;BME280;59300;52.074;4.758;2022-09-09T07:59:45;100626.72;;;16.08;93.49
71485;BME280;59300;52.074;4.758;2022-09-09T08:02:48;100633.97;;;15.88;94.27
71485;BME280;59300;52.074;4.758;2022-09-09T08:05:50;100626.16;;;15.85;94.57
71485;BME280;59300;52.074;4.758;2022-09-09T08:08:53;100634.84;;;15.71;95.67
71485;BME280;59300;52.074;4.758;2022-09-09T08:11:56;100633.97;;;15.71;95.20
71485;BME280;59300;52.074;4.758;2022-09-09T08:14:59;100628.66;;;15.71;95.61
71485;BME280;59300;52.074;4.758;2022-09-09T08:18:07;100628.75;;;15.69;95.25
71485;BME280;59300;52.074;4.758;2022-09-09T08:21:15;100621.97;;;15.63;95.05
71485;BME280;59300;52.074;4.758;2022-09-09T08:24:20;100628.31;;;15.61;95.35
71485;BME280;59300;52.074;4.758;2022-09-09T08:27:24;100629.16;;;15.61;94.69
71485;BME280;59300;52.074;4.758;2022-09-09T08:30:27;100634.38;;;15.63;94.74
71485;BME280;59300;52.074;4.758;2022-09-09T08:33:30;100635.66;;;15.56;95.83
71485;BME280;59300;52.074;4.758;2022-09-09T08:36:38;100628.13;;;15.64;95.51
71485;BME280;59300;52.074;4.758;2022-09-09T08:39:41;100639.16;;;15.74;93.87
71485;BME280;59300;52.074;4.758;2022-09-09T08:42:49;100636.00;;;15.83;94.14
71485;BME280;59300;52.074;4.758;2022-09-09T08:46:18;100638.91;;;15.96;92.89
71485;BME280;59300;52.074;4.758;2022-09-09T08:53:00;100635.81;;;16.04;92.88
71485;BME280;59300;52.074;4.758;2022-09-09T08:56:10;100639.06;;;16.09;92.38
71485;BME280;59300;52.074;4.758;2022-09-09T08:59:19;100629.22;;;16.11;92.29
71485;BME280;59300;52.074;4.758;2022-09-09T09:02:34;100640.97;;;16.07;91.94
71485;BME280;59300;52.074;4.758;2022-09-09T09:05:47;100639.59;;;16.00;93.22
71485;BME280;59300;52.074;4.758;2022-09-09T09:12:31;100650.19;;;16.17;91.78
71485;BME280;59300;52.074;4.758;2022-09-09T09:15:38;100651.59;;;16.07;95.32
71485;BME280;59300;52.074;4.758;2022-09-09T09:18:42;100652.28;;;15.77;98.30
71485;BME280;59300;52.074;4.758;2022-09-09T09:21:52;100655.22;;;15.55;98.85
71485;BME280;59300;52.074;4.758;2022-09-09T09:28:16;100657.56;;;15.43;99.45
71485;BME280;59300;52.074;4.758;2022-09-09T09:31:21;100648.41;;;15.49;99.86
71485;BME280;59300;52.074;4.758;2022-09-09T09:34:23;100649.19;;;15.51;98.39
71485;BME280;59300;52.074;4.758;2022-09-09T09:37:32;100653.25;;;15.58;98.39
71485;BME280;59300;52.074;4.758;2022-09-09T09:40:48;100645.25;;;15.76;99.04
71485;BME280;59300;52.074;4.758;2022-09-09T09:43:53;100649.47;;;15.80;100.00
71485;BME280;59300;52.074;4.758;2022-09-09T09:47:32;100651.66;;;15.72;99.48
71485;BME280;59300;52.074;4.758;2022-09-09T09:50:59;100639.31;;;15.71;100.00
71485;BME280;59300;52.074;4.758;2022-09-09T09:57:17;100644.72;;;15.69;100.00
71485;BME280;59300;52.074;4.758;2022-09-09T10:00:24;100636.03;;;15.65;100.00
71485;BME280;59300;52.074;4.758;2022-09-09T10:03:37;100641.28;;;15.67;100.00
71485;BME280;59300;52.074;4.758;2022-09-09T10:06:39;100641.81;;;15.91;100.00
71485;BME280;59300;52.074;4.758;2022-09-09T10:09:41;100641.16;;;16.20;100.00
71485;BME280;59300;52.074;4.758;2022-09-09T10:12:56;100635.13;;;16.96;96.95
71485;BME280;59300;52.074;4.758;2022-09-09T10:19:36;100633.69;;;17.95;87.02
71485;BME280;59300;52.074;4.758;2022-09-09T10:22:44;100637.31;;;17.94;87.72
71485;BME280;59300;52.074;4.758;2022-09-09T10:29:43;100634.94;;;17.89;87.93
71485;BME280;59300;52.074;4.758;2022-09-09T10:33:02;100626.44;;;17.68;88.49
71485;BME280;59300;52.074;4.758;2022-09-09T10:36:17;100629.59;;;17.15;89.39
71485;BME280;59300;52.074;4.758;2022-09-09T10:39:37;100632.47;;;16.96;89.18
71485;BME280;59300;52.074;4.758;2022-09-09T10:42:44;100630.31;;;17.03;89.31
71485;BME280;59300;52.074;4.758;2022-09-09T10:50:35;100632.22;;;17.46;88.47
71485;BME280;59300;52.074;4.758;2022-09-09T10:53:22;100632.44;;;17.57;86.87
71485;BME280;59300;52.074;4.758;2022-09-09T10:56:26;100642.22;;;17.42;88.09
71485;BME280;59300;52.074;4.758;2022-09-09T10:59:31;100638.88;;;17.08;89.85
71485;BME280;59300;52.074;4.758;2022-09-09T11:02:36;100638.97;;;17.07;91.91
71485;BME280;59300;52.074;4.758;2022-09-09T11:05:43;100642.69;;;17.04;91.74
71485;BME280;59300;52.074;4.758;2022-09-09T11:08:46;100638.38;;;17.01;91.03
71485;BME280;59300;52.074;4.758;2022-09-09T11:11:56;100637.03;;;16.78;91.43
71485;BME280;59300;52.074;4.758;2022-09-09T11:15:06;100642.03;;;16.68;93.03
71485;BME280;59300;52.074;4.758;2022-09-09T11:18:15;100637.63;;;16.67;93.39
71485;BME280;59300;52.074;4.758;2022-09-09T11:21:31;100640.84;;;17.35;90.12
71485;BME280;59300;52.074;4.758;2022-09-09T11:24:43;100632.56;;;18.14;86.98
71485;BME280;59300;52.074;4.758;2022-09-09T11:28:19;100645.72;;;18.31;85.24
71485;BME280;59300;52.074;4.758;2022-09-09T11:31:51;100645.25;;;18.24;85.73
71485;BME280;59300;52.074;4.758;2022-09-09T11:38:52;100646.75;;;18.70;84.19
71485;BME280;59300;52.074;4.758;2022-09-09T11:42:27;100641.81;;;18.22;84.17
71485;BME280;59300;52.074;4.758;2022-09-09T11:45:29;100645.22;;;17.95;84.98
71485;BME280;59300;52.074;4.758;2022-09-09T11:48:39;100628.44;;;17.50;87.66
71485;BME280;59300;52.074;4.758;2022-09-09T11:51:42;100646.34;;;17.77;85.95
71485;BME280;59300;52.074;4.758;2022-09-09T11:54:48;100639.16;;;18.50;84.49
71485;BME280;59300;52.074;4.758;2022-09-09T11:57:58;100638.38;;;18.20;82.48
71485;BME280;59300;52.074;4.758;2022-09-09T12:01:00;100634.25;;;17.86;85.40
71485;BME280;59300;52.074;4.758;2022-09-09T12:10:31;100630.94;;;17.23;91.52
71485;BME280;59300;52.074;4.758;2022-09-09T12:13:34;100632.16;;;16.54;99.60
71485;BME280;59300;52.074;4.758;2022-09-09T12:16:37;100634.72;;;16.40;100.00
71485;BME280;59300;52.074;4.758;2022-09-09T12:19:39;100631.97;;;16.25;100.00
71485;BME280;59300;52.074;4.758;2022-09-09T12:32:23;100634.59;;;15.93;100.00
71485;BME280;59300;52.074;4.758;2022-09-09T12:35:28;100623.50;;;15.85;100.00
71485;BME280;59300;52.074;4.758;2022-09-09T12:38:37;100626.63;;;15.76;100.00
71485;BME280;59300;52.074;4.758;2022-09-09T12:41:40;100618.81;;;15.73;100.00
71485;BME280;59300;52.074;4.758;2022-09-09T12:45:00;100629.16;;;15.61;100.00
71485;BME280;59300;52.074;4.758;2022-09-09T12:48:21;100632.00;;;15.41;100.00
71485;BME280;59300;52.074;4.758;2022-09-09T12:51:28;100639.59;;;15.31;100.00
71485;BME280;59300;52.074;4.758;2022-09-09T12:54:36;100646.00;;;15.27;100.00
71485;BME280;59300;52.074;4.758;2022-09-09T12:57:39;100638.94;;;15.26;100.00
71485;BME280;59300;52.074;4.758;2022-09-09T13:00:49;100642.34;;;15.29;100.00
71485;BME280;59300;52.074;4.758;2022-09-09T13:03:52;100649.50;;;15.45;100.00
71485;BME280;59300;52.074;4.758;2022-09-09T13:06:54;100644.31;;;15.59;100.00
71485;BME280;59300;52.074;4.758;2022-09-09T13:10:11;100641.38;;;15.65;100.00
71485;BME280;59300;52.074;4.758;2022-09-09T13:13:35;100647.03;;;15.75;100.00
71485;BME280;59300;52.074;4.758;2022-09-09T13:17:04;100631.47;;;15.85;100.00
71485;BME280;59300;52.074;4.758;2022-09-09T13:20:16;100639.75;;;15.96;100.00
71485;BME280;59300;52.074;4.758;2022-09-09T13:23:20;100646.63;;;16.01;100.00
71485;BME280;59300;52.074;4.758;2022-09-09T13:26:24;100638.56;;;16.02;100.00
71485;BME280;59300;52.074;4.758;2022-09-09T13:29:26;100641.84;;;16.07;100.00
71485;BME280;59300;52.074;4.758;2022-09-09T13:32:28;100639.94;;;15.93;100.00
71485;BME280;59300;52.074;4.758;2022-09-09T13:35:31;100648.75;;;15.94;100.00
71485;BME280;59300;52.074;4.758;2022-09-09T13:38:40;100649.53;;;15.96;100.00
71485;BME280;59300;52.074;4.758;2022-09-09T13:41:54;100658.22;;;16.00;100.00
71485;BME280;59300;52.074;4.758;2022-09-09T13:44:57;100655.16;;;16.07;100.00
71485;BME280;59300;52.074;4.758;2022-09-09T13:48:09;100650.19;;;16.33;100.00
71485;BME280;59300;52.074;4.758;2022-09-09T13:51:33;100653.47;;;16.70;100.00
71485;BME280;59300;52.074;4.758;2022-09-09T13:54:35;100645.91;;;17.40;100.00
71485;BME280;59300;52.074;4.758;2022-09-09T13:57:37;100657.72;;;17.80;100.00
71485;BME280;59300;52.074;4.758;2022-09-09T14:00:39;100643.38;;;17.53;99.40
71485;BME280;59300;52.074;4.758;2022-09-09T14:03:41;100644.69;;;17.45;100.00
71485;BME280;59300;52.074;4.758;2022-09-09T14:06:43;100629.09;;;17.54;100.00
71485;BME280;59300;52.074;4.758;2022-09-09T14:09:45;100628.50;;;17.48;100.00
71485;BME280;59300;52.074;4.758;2022-09-09T14:12:47;100639.34;;;17.45;98.09
71485;BME280;59300;52.074;4.758;2022-09-09T14:15:49;100648.19;;;17.01;100.00
71485;BME280;59300;52.074;4.758;2022-09-09T14:18:51;100639.94;;;16.57;100.00
71485;BME280;59300;52.074;4.758;2022-09-09T14:21:53;100641.00;;;16.39;100.00
71485;BME280;59300;52.074;4.758;2022-09-09T14:24:55;100651.41;;;16.27;100.00
71485;BME280;59300;52.074;4.758;2022-09-09T14:27:58;100655.38;;;15.87;100.00
71485;BME280;59300;52.074;4.758;2022-09-09T14:31:03;100648.84;;;15.75;100.00
71485;BME280;59300;52.074;4.758;2022-09-09T14:34:05;100646.69;;;15.65;100.00
71485;BME280;59300;52.074;4.758;2022-09-09T14:37:07;100641.84;;;15.56;100.00
71485;BME280;59300;52.074;4.758;2022-09-09T14:40:09;100650.94;;;15.52;100.00
71485;BME280;59300;52.074;4.758;2022-09-09T14:43:12;100653.63;;;15.50;100.00
71485;BME280;59300;52.074;4.758;2022-09-09T14:46:16;100653.50;;;15.54;100.00
71485;BME280;59300;52.074;4.758;2022-09-09T14:49:18;100650.59;;;15.58;100.00
71485;BME280;59300;52.074;4.758;2022-09-09T14:52:20;100660.59;;;15.71;100.00
71485;BME280;59300;52.074;4.758;2022-09-09T14:55:22;100656.53;;;15.81;100.00
71485;BME280;59300;52.074;4.758;2022-09-09T14:58:24;100658.06;;;16.03;100.00
71485;BME280;59300;52.074;4.758;2022-09-09T15:01:31;100656.97;;;16.23;100.00
71485;BME280;59300;52.074;4.758;2022-09-09T15:04:33;100655.00;;;16.42;100.00
71485;BME280;59300;52.074;4.758;2022-09-09T15:07:35;100658.69;;;16.72;100.00
71485;BME280;59300;52.074;4.758;2022-09-09T15:10:37;100656.69;;;16.92;100.00
71485;BME280;59300;52.074;4.758;2022-09-09T15:13:44;100664.03;;;17.34;100.00
71485;BME280;59300;52.074;4.758;2022-09-09T15:16:48;100665.63;;;17.82;100.00
71485;BME280;59300;52.074;4.758;2022-09-09T15:19:50;100666.69;;;18.23;100.00
71485;BME280;59300;52.074;4.758;2022-09-09T15:22:52;100672.00;;;18.37;99.30
71485;BME280;59300;52.074;4.758;2022-09-09T15:25:57;100676.03;;;18.30;97.14
71485;BME280;59300;52.074;4.758;2022-09-09T15:29:00;100665.50;;;18.56;98.64
71485;BME280;59300;52.074;4.758;2022-09-09T15:32:02;100658.56;;;18.81;94.16
71485;BME280;59300;52.074;4.758;2022-09-09T15:35:04;100669.59;;;18.89;94.23
71485;BME280;59300;52.074;4.758;2022-09-09T15:38:06;100665.00;;;18.07;95.71
71485;BME280;59300;52.074;4.758;2022-09-09T15:41:08;100655.25;;;18.21;95.36
71485;BME280;59300;52.074;4.758;2022-09-09T15:44:11;100659.91;;;17.88;98.62
71485;BME280;59300;52.074;4.758;2022-09-09T15:47:13;100662.66;;;17.58;99.00
71485;BME280;59300;52.074;4.758;2022-09-09T15:50:15;100661.28;;;17.50;100.00
71485;BME280;59300;52.074;4.758;2022-09-09T15:53:19;100671.41;;;17.60;98.91
71485;BME280;59300;52.074;4.758;2022-09-09T15:56:23;100662.50;;;17.45;99.53
71485;BME280;59300;52.074;4.758;2022-09-09T15:59:27;100667.53;;;17.35;98.85
71485;BME280;59300;52.074;4.758;2022-09-09T16:02:29;100668.97;;;17.10;99.85
71485;BME280;59300;52.074;4.758;2022-09-09T16:05:32;100673.13;;;17.00;100.00
71485;BME280;59300;52.074;4.758;2022-09-09T16:08:36;100679.41;;;16.83;100.00
71485;BME280;59300;52.074;4.758;2022-09-09T16:11:39;100678.13;;;16.74;99.23
71485;BME280;59300;52.074;4.758;2022-09-09T16:14:41;100693.06;;;16.77;100.00
71485;BME280;59300;52.074;4.758;2022-09-09T16:17:43;100682.09;;;16.67;100.00
71485;BME280;59300;52.074;4.758;2022-09-09T16:20:53;100684.31;;;16.58;100.00
71485;BME280;59300;52.074;4.758;2022-09-09T16:23:57;100685.34;;;16.56;100.00
71485;BME280;59300;52.074;4.758;2022-09-09T16:26:59;100679.69;;;16.62;100.00
71485;BME280;59300;52.074;4.758;2022-09-09T16:30:01;100683.97;;;16.65;100.00
71485;BME280;59300;52.074;4.758;2022-09-09T16:33:03;100684.22;;;16.76;100.00
71485;BME280;59300;52.074;4.758;2022-09-09T16:36:13;100680.78;;;16.74;100.00
71485;BME280;59300;52.074;4.758;2022-09-09T16:39:18;100690.16;;;16.65;100.00
71485;BME280;59300;52.074;4.758;2022-09-09T16:42:20;100706.56;;;16.57;100.00
71485;BME280;59300;52.074;4.758;2022-09-09T16:45:22;100696.25;;;16.51;100.00
71485;BME280;59300;52.074;4.758;2022-09-09T16:48:24;100702.16;;;16.40;100.00
71485;BME280;59300;52.074;4.758;2022-09-09T16:51:37;100700.66;;;16.52;100.00
71485;BME280;59300;52.074;4.758;2022-09-09T16:54:39;100705.72;;;16.73;100.00
71485;BME280;59300;52.074;4.758;2022-09-09T16:57:41;100703.81;;;16.75;100.00
71485;BME280;59300;52.074;4.758;2022-09-09T17:00:43;100703.91;;;16.57;100.00
71485;BME280;59300;52.074;4.758;2022-09-09T17:03:45;100709.22;;;16.41;100.00
71485;BME280;59300;52.074;4.758;2022-09-09T17:06:48;100704.81;;;16.24;100.00
71485;BME280;59300;52.074;4.758;2022-09-09T17:09:51;100710.69;;;16.13;100.00
71485;BME280;59300;52.074;4.758;2022-09-09T17:12:53;100713.47;;;16.12;100.00
71485;BME280;59300;52.074;4.758;2022-09-09T17:15:55;100720.75;;;16.08;100.00
71485;BME280;59300;52.074;4.758;2022-09-09T17:19:03;100708.47;;;16.06;100.00
71485;BME280;59300;52.074;4.758;2022-09-09T17:22:05;100715.00;;;16.00;100.00